GW6966 Weather Reports


time (UTC)temp
F
wind
direction
speed
knots
gust
knots
rain 1hr
in
rain 24hr
in
rain mn
in
humidity
%
barometer
mb
20260506024205 71 285 0.0 0.0 0.00 0.00 0.00 44 1014.4
20260506023701 71 7 0.0 0.0 0.00 0.00 0.00 44 1014.2
20260506023159 71 7 0.0 0.0 0.00 0.00 0.00 44 1014.1
20260506022655 71 328 0.0 0.0 0.00 0.00 0.00 44 1014.0
20260506022153 72 11 0.0 0.0 0.00 0.00 0.00 45 1014.1
20260506021651 72 12 0.0 0.0 0.00 0.00 0.00 42 1014.0
20260506021148 72 346 0.0 0.0 0.00 0.00 0.00 43 1013.9
20260506020645 72 286 0.0 0.0 0.00 0.00 0.00 42 1013.8
20260506020143 73 343 0.0 0.0 0.00 0.00 0.00 43 1013.6
20260506015640 73 81 0.0 0.0 0.00 0.00 0.00 41 1013.8
20260506015137 73 132 0.0 0.0 0.00 0.00 0.00 41 1013.8
20260506014635 72 107 0.0 0.0 0.00 0.00 0.00 42 1013.7
20260506014130 72 121 0.0 0.0 0.00 0.00 0.00 42 1013.9
20260506013628 72 11 0.0 0.0 0.00 0.00 0.00 42 1013.9
20260506013124 72 279 0.0 0.0 0.00 0.00 0.00 43 1013.8
20260506012621 72 14 0.0 0.0 0.00 0.00 0.00 43 1013.7
20260506012118 72 88 0.0 0.0 0.00 0.00 0.00 42 1013.6
20260506011616 72 59 0.0 0.0 0.00 0.00 0.00 42 1013.5
20260506011112 72 40 0.0 0.0 0.00 0.00 0.00 42 1013.8
20260506010611 73 21 0.0 0.0 0.00 0.00 0.00 42 1013.6
20260506010108 73 60 0.0 0.0 0.00 0.00 0.00 41 1013.6
20260506005605 73 1 0.0 0.0 0.00 0.00 0.00 41 1013.6
20260506005101 73 29 0.0 0.0 0.00 0.00 0.00 40 1013.6
20260506004558 74 10 0.0 0.0 0.00 0.00 0.00 41 1013.7
20260506004054 74 70 0.0 0.9 0.00 0.00 0.00 40 1013.8
20260506003551 74 169 0.0 0.0 0.00 0.00 0.00 40 1013.8
20260506003047 74 135 0.0 0.0 0.00 0.00 0.00 40 1013.9
20260506002543 74 111 0.0 0.9 0.00 0.00 0.00 39 1013.8
20260506002039 74 316 0.0 0.0 0.00 0.00 0.00 41 1013.9
20260506001536 74 79 0.0 0.0 0.00 0.00 0.00 41 1013.8
20260506001033 74 27 0.0 0.0 0.00 0.00 0.00 40 1013.9
20260506000530 75 280 0.0 0.0 0.00 0.00 0.00 40 1013.7
20260506000028 75 37 0.0 0.0 0.00 0.00 0.00 42 1013.8
20260505235526 75 41 0.0 0.0 0.00 0.00 0.00 40 1013.7
20260505235022 75 329 0.0 0.0 0.00 0.00 0.00 39 1013.7
20260505234519 76 158 0.0 0.0 0.00 0.00 0.00 40 1013.7
20260505234016 76 176 0.0 0.0 0.00 0.00 0.00 40 1013.7
20260505233513 76 275 0.0 0.0 0.00 0.00 0.00 39 1013.5
20260505233011 76 328 0.0 0.9 0.00 0.00 0.00 39 1013.7
20260505232509 77 0 0.0 0.0 0.00 0.00 0.00 40 1013.5
20260505232006 77 295 0.0 0.0 0.00 0.00 0.00 40 1013.6
20260505231503 76 118 0.0 0.0 0.00 0.00 0.00 39 1013.6
20260505231001 76 311 0.0 0.0 0.00 0.00 0.00 40 1013.5
20260505230458 76 350 0.0 0.0 0.00 0.00 0.00 41 1013.4
20260505225954 77 120 0.0 0.0 0.00 0.00 0.00 40 1013.4
20260505225452 77 138 0.0 0.0 0.00 0.00 0.00 41 1013.8
20260505224948 77 237 0.0 0.0 0.00 0.00 0.00 40 1013.6
20260505224444 77 337 0.0 0.0 0.00 0.00 0.00 39 1013.5
20260505223942 77 294 0.0 0.0 0.00 0.00 0.00 40 1013.4
20260505223439 77 93 0.0 0.0 0.00 0.00 0.00 39 1013.5
20260505222935 77 325 0.0 0.0 0.00 0.00 0.00 40 1013.5
20260505222431 77 104 0.9 0.9 0.00 0.00 0.00 39 1013.5
20260505221927 77 98 0.0 0.0 0.00 0.00 0.00 39 1013.6
20260505221425 77 99 0.0 0.0 0.00 0.00 0.00 39 1013.6
20260505220922 77 278 0.0 0.0 0.00 0.00 0.00 38 1013.5
20260505220419 77 333 0.0 0.0 0.00 0.00 0.00 37 1013.3
20260505215916 78 306 0.9 1.7 0.00 0.00 0.00 37 1013.2
20260505215414 78 123 0.0 0.9 0.00 0.00 0.00 37 1013.3
20260505214912 78 310 0.0 0.0 0.00 0.00 0.00 39 1013.4
20260505214409 78 80 0.0 0.0 0.00 0.00 0.00 39 1013.8
20260505213906 78 308 0.0 0.9 0.00 0.00 0.00 38 1013.6
20260505213404 78 179 0.0 0.0 0.00 0.00 0.00 39 1013.3
20260505212900 78 82 0.0 0.0 0.00 0.00 0.00 38 1013.7
20260505212357 78 105 0.0 0.9 0.00 0.00 0.00 38 1013.6
20260505211853 78 124 0.0 0.0 0.00 0.00 0.00 38 1013.7
20260505211351 78 82 0.0 0.0 0.00 0.00 0.00 38 1013.7
20260505210847 78 22 0.0 0.9 0.00 0.00 0.00 37 1013.9
20260505210344 79 89 0.0 0.0 0.00 0.00 0.00 37 1013.6
20260505205841 79 79 0.0 0.0 0.00 0.00 0.00 37 1013.7
20260505205339 79 41 1.7 1.7 0.00 0.00 0.00 36 1013.9
20260505204836 79 242 0.0 0.0 0.00 0.00 0.00 36 1014.0
20260505204334 78 325 0.0 0.0 0.00 0.00 0.00 38 1014.1
20260505203831 78 125 0.9 0.9 0.00 0.00 0.00 39 1013.9
20260505203327 78 303 1.7 2.6 0.00 0.00 0.00 39 1013.9
20260505202824 78 120 0.0 0.0 0.00 0.00 0.00 38 1014.0
20260505202320 78 333 0.0 0.9 0.00 0.00 0.00 39 1014.0
20260505201817 78 71 0.0 0.9 0.00 0.00 0.00 38 1014.2
20260505201314 78 193 0.0 0.9 0.00 0.00 0.00 39 1014.3
20260505200812 79 139 1.7 1.7 0.00 0.00 0.00 38 1014.4
20260505200309 78 292 0.0 0.0 0.00 0.00 0.00 39 1014.3
20260505195804 78 74 0.0 0.0 0.00 0.00 0.00 37 1014.6
20260505195305 78 117 0.9 0.9 0.00 0.00 0.00 38 1014.7
20260505194759 78 315 0.0 0.0 0.00 0.00 0.00 37 1014.9
20260505194256 78 266 1.7 1.7 0.00 0.00 0.00 38 1014.9
20260505193756 77 335 0.0 0.0 0.00 0.00 0.00 40 1015.0
20260505193254 78 262 1.7 1.7 0.00 0.00 0.00 37 1014.9
20260505192752 78 275 1.7 1.7 0.00 0.00 0.00 37 1015.1
20260505192250 77 266 0.0 0.0 0.00 0.00 0.00 41 1014.9
20260505191748 77 291 0.9 1.7 0.00 0.00 0.00 42 1014.8
20260505191246 77 73 0.9 1.7 0.00 0.00 0.00 40 1014.9
20260505190742 77 256 1.7 2.6 0.00 0.00 0.00 40 1015.1
20260505190237 76 293 1.7 2.6 0.00 0.00 0.00 40 1015.1
20260505185734 76 132 0.0 0.0 0.00 0.00 0.00 42 1015.1
20260505185230 76 110 0.0 0.0 0.00 0.00 0.00 40 1015.3
20260505184726 76 129 0.9 0.9 0.00 0.00 0.00 40 1015.3
20260505184224 76 116 0.0 0.0 0.00 0.00 0.00 40 1015.2
20260505183720 77 101 0.0 0.0 0.00 0.00 0.00 40 1015.2
20260505183218 77 71 0.9 0.9 0.00 0.00 0.00 39 1015.1
20260505182714 77 252 0.9 0.9 0.00 0.00 0.00 37 1015.3
20260505182211 77 315 0.0 0.0 0.00 0.00 0.00 38 1015.6
20260505181707 76 281 0.0 0.9 0.00 0.00 0.00 41 1015.6
20260505181205 76 337 0.9 0.9 0.00 0.00 0.00 39 1015.6
20260505180701 76 248 0.0 0.0 0.00 0.00 0.00 41 1015.9
20260505180158 77 162 1.7 3.5 0.00 0.00 0.00 37 1015.8
20260505175654 77 291 0.0 0.0 0.00 0.00 0.00 42 1016.1
20260505175151 76 11 0.0 0.0 0.00 0.00 0.00 43 1016.0
20260505174647 77 345 0.0 0.0 0.00 0.00 0.00 40 1016.1
20260505174143 77 86 0.9 1.7 0.00 0.00 0.00 40 1015.9
20260505173640 77 135 0.0 0.0 0.00 0.00 0.00 44 1016.4
20260505173137 77 327 0.0 0.0 0.00 0.00 0.00 39 1016.4
20260505172635 77 102 0.0 0.9 0.00 0.00 0.00 40 1016.3
20260505172132 77 118 0.0 0.9 0.00 0.00 0.00 41 1016.4
20260505171626 77 277 0.0 0.9 0.00 0.00 0.00 40 1016.3
20260505171124 78 290 1.7 2.6 0.00 0.00 0.00 38 1016.4
20260505170621 77 162 0.0 0.0 0.00 0.00 0.00 42 1016.4
20260505170117 77 358 0.9 0.9 0.00 0.00 0.00 42 1016.3
20260505165612 77 279 0.0 0.9 0.00 0.00 0.00 42 1016.1
20260505165108 77 253 0.0 0.9 0.00 0.00 0.00 41 1016.5
20260505164604 76 297 0.9 0.9 0.00 0.00 0.00 44 1016.1
20260505164102 76 322 0.9 0.9 0.00 0.00 0.00 42 1016.2
20260505163600 75 131 0.9 0.9 0.00 0.00 0.00 45 1016.1
20260505163057 76 303 4.3 7.0 0.00 0.00 0.00 43 1016.2
20260505162555 77 260 0.0 0.0 0.00 0.00 0.00 44 1016.4
20260505162052 76 267 1.7 2.6 0.00 0.00 0.00 44 1016.1
20260505161549 76 298 0.9 1.7 0.00 0.00 0.00 44 1016.5
20260505161046 76 88 0.0 0.0 0.00 0.00 0.00 45 1016.6
20260505160544 76 99 0.0 0.0 0.00 0.00 0.00 44 1016.8
20260505153020 75 77 2.6 3.5 0.00 0.00 0.00 44 1016.6
20260505152517 75 97 0.9 0.9 0.00 0.00 0.00 44 1016.5
20260505152013 75 332 0.0 0.0 0.00 0.00 0.00 49 1016.4
20260505151508 75 286 0.0 0.9 0.00 0.00 0.00 44 1016.6
20260505151006 74 314 0.0 0.0 0.00 0.00 0.00 48 1016.7
20260505150502 74 37 0.9 0.9 0.00 0.00 0.00 48 1016.7
20260505140433 65 269 0.0 0.0 0.00 0.00 0.00 66 1016.5
20260505124846 56 282 0.0 0.0 0.00 0.00 0.00 83 1016.3
20260505124343 55 282 0.0 0.0 0.00 0.00 0.00 84 1016.1
20260505123839 55 282 0.0 0.0 0.00 0.00 0.00 86 1016.2
20260505123336 55 282 0.0 0.0 0.00 0.00 0.00 86 1016.0
20260505122832 54 282 0.0 0.0 0.00 0.00 0.00 87 1015.9
20260505122329 53 282 0.0 0.0 0.00 0.00 0.00 90 1015.7
20260505121826 53 282 0.0 0.0 0.00 0.00 0.00 91 1015.9
20260505121323 52 282 0.0 0.0 0.00 0.00 0.00 91 1015.9
20260505120819 52 282 0.0 0.0 0.00 0.00 0.00 92 1016.1
20260505120315 51 282 0.0 0.0 0.00 0.00 0.00 92 1016.0
20260505115813 51 282 0.0 0.0 0.00 0.00 0.00 92 1015.9
20260505115311 50 282 0.0 0.0 0.00 0.00 0.00 92 1016.0
20260505114809 50 282 0.0 0.0 0.00 0.00 0.00 92 1016.0
20260505114305 50 282 0.0 0.0 0.00 0.00 0.00 92 1015.7
20260505113801 50 282 0.0 0.0 0.00 0.00 0.00 92 1015.6
20260505113258 49 282 0.0 0.0 0.00 0.00 0.00 92 1015.4
20260505112754 49 282 0.0 0.0 0.00 0.00 0.00 92 1015.6
20260505112252 49 282 0.0 0.0 0.00 0.00 0.00 92 1015.3
20260505111752 49 282 0.0 0.0 0.00 0.00 0.00 92 1015.2
20260505111248 49 282 0.0 0.0 0.00 0.00 0.00 92 1015.3
20260505110744 49 282 0.0 0.0 0.00 0.00 0.00 92 1015.0
20260505110242 49 282 0.0 0.0 0.00 0.00 0.00 91 1015.1
20260505102217 49 282 0.0 0.0 0.00 0.00 0.00 91 1015.0
20260505101716 49 282 0.0 0.0 0.00 0.00 0.00 91 1015.1
20260505101212 49 282 0.0 0.0 0.00 0.00 0.00 91 1015.3
20260505100708 49 282 0.0 0.0 0.00 0.00 0.00 91 1015.2
20260505100205 49 282 0.0 0.0 0.00 0.00 0.00 91 1015.4
20260505095701 49 282 0.0 0.0 0.00 0.00 0.00 91 1015.5
20260505095159 49 282 0.0 0.0 0.00 0.00 0.00 91 1015.3
20260505094654 49 282 0.0 0.0 0.00 0.00 0.00 90 1015.2
20260505094151 49 282 0.0 0.0 0.00 0.00 0.00 90 1015.2
20260505093647 49 282 0.0 0.0 0.00 0.00 0.00 90 1015.2
20260505093145 50 282 0.0 0.0 0.00 0.00 0.00 90 1015.2
20260505092642 50 282 0.0 0.0 0.00 0.00 0.00 90 1015.1
20260505092141 50 282 0.0 0.0 0.00 0.00 0.00 90 1015.1
20260505091637 50 282 0.0 0.0 0.00 0.00 0.00 90 1015.2
20260505091135 50 282 0.0 0.0 0.00 0.00 0.00 90 1015.3
20260505090632 50 282 0.0 0.0 0.00 0.00 0.00 90 1015.3
20260505090131 50 282 0.0 0.0 0.00 0.00 0.00 90 1015.4
20260505085628 50 282 0.0 0.0 0.00 0.00 0.00 90 1015.3
20260505085126 50 282 0.0 0.0 0.00 0.00 0.00 90 1015.4
20260505084623 50 282 0.0 0.0 0.00 0.00 0.00 90 1015.4
20260505084121 50 282 0.0 0.0 0.00 0.00 0.00 89 1015.3
20260505083619 50 282 0.0 0.0 0.00 0.00 0.00 89 1015.4
20260505083115 50 282 0.0 0.0 0.00 0.00 0.00 89 1015.3
20260505082611 50 282 0.0 0.0 0.00 0.00 0.00 88 1015.3
20260505082108 50 282 0.0 0.0 0.00 0.00 0.00 88 1015.4
20260505081604 51 282 0.0 0.0 0.00 0.00 0.00 88 1015.5
20260505081102 51 282 0.0 0.0 0.00 0.00 0.00 88 1015.4
20260505080557 51 282 0.0 0.0 0.00 0.00 0.00 88 1015.4
20260505080054 51 282 0.0 0.0 0.00 0.00 0.00 88 1015.4
20260505075550 51 282 0.0 0.0 0.00 0.00 0.00 88 1015.4
20260505075047 51 282 0.0 0.0 0.00 0.00 0.00 87 1015.2
20260505074544 51 282 0.0 0.0 0.00 0.00 0.00 87 1015.3
20260505074041 51 282 0.0 0.0 0.00 0.00 0.00 87 1015.5
20260505073538 51 282 0.0 0.0 0.00 0.00 0.00 87 1015.1
20260505073037 51 282 0.0 0.0 0.00 0.00 0.00 86 1015.4
20260505072532 52 282 0.0 0.0 0.00 0.00 0.00 86 1015.4
20260505072029 52 282 0.0 0.0 0.00 0.00 0.00 86 1015.4
20260505071524 52 282 0.0 0.0 0.00 0.00 0.00 85 1015.4
20260505071023 52 282 0.0 0.0 0.00 0.00 0.00 85 1015.5
20260505070520 52 282 0.0 0.0 0.00 0.00 0.00 85 1015.2
20260505070016 52 282 0.0 0.0 0.00 0.00 0.00 85 1015.3
20260505065512 52 282 0.0 0.0 0.00 0.00 0.00 85 1015.4
20260505065008 52 282 0.0 0.0 0.00 0.00 0.00 84 1015.7
20260505064505 52 282 0.0 0.0 0.00 0.00 0.00 84 1015.5
20260505064004 52 282 0.0 0.0 0.00 0.00 0.00 84 1015.4
20260505063501 53 282 0.0 0.0 0.00 0.00 0.00 84 1015.3
20260505062956 53 282 0.0 0.0 0.00 0.00 0.00 83 1015.4
20260505062454 53 282 0.0 0.0 0.00 0.00 0.00 82 1015.2
20260505061950 53 282 0.0 0.0 0.00 0.00 0.00 82 1015.5
20260505061448 53 282 0.0 0.0 0.00 0.00 0.00 82 1015.8
20260505060946 53 282 0.0 0.0 0.00 0.00 0.00 81 1015.6
20260505060443 53 282 0.0 0.0 0.00 0.00 0.00 81 1015.4
20260505055939 53 282 0.0 0.0 0.00 0.00 0.00 80 1015.5
20260505055435 54 282 0.0 0.0 0.00 0.00 0.00 80 1015.7
20260505054932 54 282 0.0 0.0 0.00 0.00 0.00 79 1015.5
20260505054429 54 282 0.0 0.0 0.00 0.00 0.00 79 1015.7
20260505053927 54 282 0.0 0.0 0.00 0.00 0.00 78 1015.6
20260505053424 54 282 0.0 0.0 0.00 0.00 0.00 78 1015.7
20260505052921 54 282 0.0 0.0 0.00 0.00 0.00 78 1015.6
20260505052418 55 282 0.0 0.0 0.00 0.00 0.00 77 1015.7
20260505051915 55 282 0.0 0.0 0.00 0.00 0.00 76 1015.7
20260505051412 55 282 0.0 0.0 0.00 0.00 0.00 76 1015.5
20260505050910 55 282 0.0 0.0 0.00 0.00 0.00 76 1015.7
20260505050408 55 282 0.0 0.0 0.00 0.00 0.00 76 1015.5
20260505041336 57 282 0.0 0.0 0.00 0.00 0.00 71 1015.6
20260505040833 57 282 0.0 0.0 0.00 0.00 0.00 71 1015.5
20260505040330 57 282 0.0 0.0 0.00 0.00 0.00 70 1015.4
20260505035827 57 282 0.0 0.0 0.00 0.00 0.00 69 1015.5
20260505035323 57 282 0.0 0.0 0.00 0.00 0.00 69 1015.6
20260505034820 57 282 0.0 0.0 0.00 0.00 0.00 68 1015.4
20260505034317 57 282 0.0 0.0 0.00 0.00 0.00 69 1015.6
20260505033814 58 281 0.0 0.0 0.00 0.00 0.00 69 1015.7
20260505033311 58 285 0.0 0.0 0.00 0.00 0.00 69 1015.7
20260505032809 58 154 0.0 0.0 0.00 0.00 0.00 68 1015.7
20260505032305 59 168 0.0 0.0 0.00 0.00 0.00 66 1015.8
20260505031802 59 168 0.0 0.0 0.00 0.00 0.00 66 1015.6
20260505031258 59 168 0.0 0.0 0.00 0.00 0.00 66 1015.7
20260505030756 59 168 0.0 0.0 0.00 0.00 0.00 64 1015.4
20260505030252 59 168 0.0 0.0 0.00 0.00 0.00 62 1015.5
20260505025747 60 168 0.0 0.0 0.00 0.00 0.00 63 1015.6
20260505025245 60 168 0.0 0.0 0.00 0.00 0.00 62 1015.6
20260505024743 60 168 0.0 0.0 0.00 0.00 0.00 61 1015.7